Time;durP1;ratioP1;P1;durP2;ratioP2;P2;SDS_P1;SDS_P2;PMS_P1;PMS_P2;Temp;Humidity;BMP_temperature;BMP_pressure;BME280_temperature;BME280_humidity;BME280_pressure;Samples;Min_cycle;Max_cycle;Signal;HPM_P1;HPM_P2
2023/10/03 00:00:24;;;;;;;26.40;11.63;;;21.50;94.50;;;;;;5033561;28;20038;-79
2023/10/03 00:02:55;;;;;;;25.43;12.83;;;21.50;94.50;;;;;;5049092;28;20070;-79
2023/10/03 00:05:22;;;;;;;25.92;13.05;;;21.50;94.50;;;;;;5033986;28;20292;-79
2023/10/03 00:07:58;;;;;;;17.90;10.32;;;21.60;94.50;;;;;;5033212;28;20477;-78
2023/10/03 00:10:25;;;;;;;20.55;10.57;;;21.50;94.50;;;;;;5033637;28;20454;-79
2023/10/03 00:12:51;;;;;;;17.33;9.35;;;21.60;94.50;;;;;;5032212;28;20029;-78
2023/10/03 00:15:25;;;;;;;18.73;10.35;;;21.60;94.40;;;;;;5033923;28;20083;-78
2023/10/03 00:17:52;;;;;;;21.50;11.25;;;21.70;94.40;;;;;;5033960;28;20061;-78
2023/10/03 00:20:18;;;;;;;22.95;12.30;;;21.70;94.30;;;;;;5048631;28;20032;-78
2023/10/03 00:22:48;;;;;;;19.10;10.55;;;21.60;94.20;;;;;;5033560;28;20095;-79
2023/10/03 00:25:18;;;;;;;28.08;13.93;;;21.70;94.20;;;;;;5034130;28;20046;-79
2023/10/03 00:27:51;;;;;;;23.50;12.80;;;21.70;94.00;;;;;;5033281;28;20081;-79
2023/10/03 00:30:19;;;;;;;23.50;12.18;;;21.60;94.10;;;;;;5033444;28;20083;-78
2023/10/03 00:32:46;;;;;;;20.88;10.55;;;21.60;94.10;;;;;;5033338;28;20033;-79
2023/10/03 00:35:12;;;;;;;23.77;12.60;;;21.60;94.10;;;;;;5033322;28;20072;-79
2023/10/03 00:37:39;;;;;;;22.70;11.80;;;21.50;94.00;;;;;;5033870;28;20037;-79
2023/10/03 00:42:48;;;;;;;;;;;21.60;94.10;;;;;;5035611;28;20378;-79
2023/10/03 00:45:19;;;;;;;20.85;11.20;;;21.60;94.10;;;;;;5034883;28;19990;-79
2023/10/03 00:47:48;;;;;;;19.75;10.32;;;21.60;93.90;;;;;;5035694;28;20037;-79
2023/10/03 00:50:16;;;;;;;19.77;10.35;;;21.60;93.90;;;;;;5034050;28;20043;-80
2023/10/03 00:52:45;;;;;;;20.77;10.93;;;21.60;93.90;;;;;;5033360;28;20104;-79
2023/10/03 00:55:11;;;;;;;22.30;11.85;;;21.70;93.90;;;;;;5033168;28;20034;-79
2023/10/03 00:57:37;;;;;;;17.80;10.32;;;21.70;93.90;;;;;;5033319;28;20049;-79
2023/10/03 01:00:16;;;;;;;22.85;11.02;;;21.70;93.90;;;;;;5032722;28;20437;-79
2023/10/03 01:02:50;;;;;;;23.38;10.98;;;21.70;93.80;;;;;;5048806;28;20036;-78
2023/10/03 01:05:16;;;;;;;23.98;12.13;;;21.70;93.80;;;;;;5032687;28;20116;-78
2023/10/03 01:07:44;;;;;;;23.63;12.90;;;21.70;93.70;;;;;;5031289;28;20072;-79
2023/10/03 01:10:17;;;;;;;18.98;10.32;;;21.70;93.70;;;;;;5031545;28;20346;-79
2023/10/03 01:12:45;;;;;;;25.35;11.93;;;21.80;93.80;;;;;;5035664;28;20033;-79
2023/10/03 01:15:22;;;;;;;18.42;10.43;;;21.80;93.70;;;;;;5037434;28;20033;-79
2023/10/03 01:17:52;;;;;;;19.48;9.32;;;21.80;93.70;;;;;;5037356;28;20044;-78
2023/10/03 01:20:25;;;;;;;23.73;12.20;;;21.80;93.70;;;;;;5037053;28;20087;-78
2023/10/03 01:22:54;;;;;;;18.48;10.77;;;21.80;93.60;;;;;;5036736;28;20025;-78
2023/10/03 01:25:20;;;;;;;22.10;11.75;;;21.80;93.60;;;;;;5037066;28;20132;-79
2023/10/03 01:27:46;;;;;;;20.85;11.00;;;21.70;93.50;;;;;;5036785;28;20481;-79
2023/10/03 01:30:12;;;;;;;20.67;10.75;;;21.80;93.60;;;;;;5037054;28;20028;-79
2023/10/03 01:32:48;;;;;;;21.55;11.50;;;21.80;93.50;;;;;;5036542;28;20030;-79
2023/10/03 01:35:15;;;;;;;21.67;11.48;;;21.70;93.50;;;;;;5036556;28;20037;-78
2023/10/03 01:37:41;;;;;;;22.80;11.75;;;21.70;93.50;;;;;;5036369;28;20033;-79
2023/10/03 01:40:13;;;;;;;19.20;10.43;;;21.70;93.50;;;;;;5036410;28;20036;-79
2023/10/03 01:42:46;;;;;;;;;;;21.70;93.50;;;;;;5037032;28;20160;-79
2023/10/03 01:45:17;;;;;;;21.48;11.65;;;21.70;93.50;;;;;;5036238;28;19921;-79
2023/10/03 01:47:45;;;;;;;21.65;11.55;;;21.60;93.40;;;;;;5036476;28;20033;-79
2023/10/03 01:50:12;;;;;;;22.05;12.23;;;21.70;93.40;;;;;;5036220;28;20022;-79
2023/10/03 01:52:40;;;;;;;24.42;12.35;;;21.70;93.40;;;;;;5036139;28;20036;-79
2023/10/03 01:55:06;;;;;;;23.17;11.57;;;21.70;93.40;;;;;;5036061;28;20068;-79
2023/10/03 01:57:32;;;;;;;23.40;12.52;;;21.60;93.40;;;;;;5035969;28;20095;-78
2023/10/03 01:59:58;;;;;;;24.13;13.52;;;21.70;93.40;;;;;;5036082;28;20396;-79
2023/10/03 02:02:23;;;;;;;23.30;12.38;;;21.70;93.30;;;;;;5035719;28;20132;-78
2023/10/03 02:04:50;;;;;;;21.13;11.52;;;21.60;93.30;;;;;;5051447;28;20078;-78
2023/10/03 02:07:16;;;;;;;20.90;10.70;;;21.60;93.40;;;;;;5035746;28;20041;-78
2023/10/03 02:09:43;;;;;;;19.50;10.65;;;21.60;93.40;;;;;;5035485;28;20497;-79
2023/10/03 02:12:10;;;;;;;23.08;11.40;;;21.70;93.40;;;;;;5034588;28;20478;-79
2023/10/03 02:14:39;;;;;;;22.00;10.45;;;21.60;93.30;;;;;;5034529;28;20124;-79
2023/10/03 02:17:05;;;;;;;18.95;10.35;;;21.60;93.30;;;;;;5036433;28;20438;-79
2023/10/03 02:19:31;;;;;;;21.50;11.90;;;21.70;93.30;;;;;;5035356;28;20040;-78
2023/10/03 02:21:59;;;;;;;25.92;12.68;;;21.70;93.30;;;;;;5034207;28;20025;-79
2023/10/03 02:24:25;;;;;;;21.98;12.05;;;21.70;93.30;;;;;;5035245;28;20451;-78
2023/10/03 02:26:51;;;;;;;22.98;11.88;;;21.70;93.20;;;;;;5035503;28;20348;-78
2023/10/03 02:29:17;;;;;;;21.25;11.95;;;21.60;93.10;;;;;;5035277;28;20068;-78
2023/10/03 02:31:44;;;;;;;20.17;11.30;;;21.70;93.20;;;;;;5050831;28;20075;-78
2023/10/03 02:34:10;;;;;;;31.27;15.23;;;21.70;93.20;;;;;;5034128;28;20025;-79
2023/10/03 02:36:35;;;;;;;34.53;16.60;;;21.70;93.00;;;;;;5035629;28;20055;-78
2023/10/03 02:39:01;;;;;;;33.33;16.35;;;21.70;92.80;;;;;;5035563;28;20071;-79
2023/10/03 02:41:29;;;;;;;29.10;14.60;;;21.60;92.80;;;;;;5034149;28;20037;-78
2023/10/03 02:43:55;;;;;;;29.30;14.63;;;21.60;92.90;;;;;;5035188;28;20033;-79
2023/10/03 02:46:21;;;;;;;29.48;14.82;;;21.50;92.80;;;;;;5017570;28;20091;-78
2023/10/03 02:48:48;;;;;;;23.75;12.82;;;21.60;93.00;;;;;;5035411;28;20175;-79
2023/10/03 02:51:14;;;;;;;34.38;16.70;;;21.50;93.00;;;;;;5035515;28;20038;-79
2023/10/03 02:53:40;;;;;;;28.90;13.80;;;21.40;93.10;;;;;;5035421;28;20466;-78
2023/10/03 02:56:07;;;;;;;32.35;15.82;;;21.50;93.20;;;;;;5035292;28;20470;-78
2023/10/03 02:58:33;;;;;;;35.58;16.40;;;21.40;93.30;;;;;;5035579;28;20030;-78
2023/10/03 03:00:58;;;;;;;34.30;16.38;;;21.40;93.20;;;;;;5036918;28;20056;-78
2023/10/03 03:03:30;;;;;;;32.22;16.10;;;21.30;93.30;;;;;;5053021;28;20145;-79
2023/10/03 03:05:58;;;;;;;33.10;16.57;;;21.30;93.40;;;;;;5036248;28;20048;-78
2023/10/03 03:08:24;;;;;;;34.53;17.00;;;21.20;93.50;;;;;;5035280;28;20103;-78
2023/10/03 03:10:55;;;;;;;37.10;17.02;;;21.20;93.60;;;;;;5035040;28;20034;-78
2023/10/03 03:13:23;;;;;;;32.58;16.48;;;21.10;93.80;;;;;;5034842;28;20087;-78
2023/10/03 03:15:53;;;;;;;31.35;15.23;;;21.10;93.90;;;;;;5034690;28;20025;-79
2023/10/03 03:18:24;;;;;;;27.60;14.07;;;21.10;94.00;;;;;;5033411;28;20033;-78
2023/10/03 03:20:53;;;;;;;35.20;16.33;;;21.00;94.00;;;;;;5033699;28;20044;-79
2023/10/03 03:23:20;;;;;;;32.75;16.23;;;21.00;94.10;;;;;;5034488;28;20022;-78
2023/10/03 03:25:49;;;;;;;33.28;16.02;;;21.00;94.20;;;;;;5033090;28;20422;-79
2023/10/03 03:28:15;;;;;;;29.02;14.30;;;21.00;94.30;;;;;;5034369;28;20045;-78
2023/10/03 03:30:54;;;;;;;36.13;16.48;;;21.00;94.30;;;;;;5034282;28;20079;-79
2023/10/03 03:33:20;;;;;;;33.70;15.77;;;21.00;94.30;;;;;;5034210;28;20120;-79
2023/10/03 03:35:47;;;;;;;32.90;15.65;;;21.00;94.40;;;;;;5033683;28;20068;-79
2023/10/03 03:38:18;;;;;;;30.20;14.40;;;20.90;94.50;;;;;;5034158;28;20026;-79
2023/10/03 03:40:53;;;;;;;29.95;14.57;;;20.90;94.60;;;;;;5033175;28;20386;-79
2023/10/03 03:43:21;;;;;;;33.08;15.10;;;20.90;94.80;;;;;;5034818;28;20421;-78
2023/10/03 03:45:47;;;;;;;30.45;14.35;;;20.90;94.90;;;;;;5034135;28;20118;-79
2023/10/03 03:48:13;;;;;;;33.53;14.65;;;20.90;95.10;;;;;;5034450;28;20450;-80
2023/10/03 03:50:39;;;;;;;31.15;15.30;;;20.80;95.00;;;;;;5033833;28;20398;-80
2023/10/03 03:53:06;;;;;;;31.38;15.15;;;20.80;95.00;;;;;;5033993;28;20339;-79
2023/10/03 03:55:34;;;;;;;29.02;14.13;;;20.80;95.00;;;;;;5049788;28;20037;-80
2023/10/03 03:58:04;;;;;;;34.60;15.48;;;20.80;95.00;;;;;;5033791;28;20100;-79
2023/10/03 04:00:31;;;;;;;31.83;14.98;;;20.80;95.10;;;;;;5033895;28;20033;-79
2023/10/03 04:02:57;;;;;;;28.63;14.00;;;20.80;95.20;;;;;;5049161;28;20033;-80
2023/10/03 04:05:28;;;;;;;32.30;14.55;;;20.80;95.20;;;;;;5033994;28;20100;-79
2023/10/03 04:07:54;;;;;;;31.05;14.18;;;20.80;95.20;;;;;;5033622;28;20421;-79
2023/10/03 04:10:21;;;;;;;32.03;14.57;;;20.80;95.20;;;;;;5034257;28;20374;-79
2023/10/03 04:12:49;;;;;;;29.52;13.52;;;20.80;95.20;;;;;;5033788;28;20389;-79
2023/10/03 04:15:15;;;;;;;30.33;14.40;;;20.80;95.40;;;;;;5016823;28;20040;-79
2023/10/03 04:17:44;;;;;;;28.15;14.02;;;20.80;95.50;;;;;;5033616;28;20033;-80
2023/10/03 04:20:23;;;;;;;28.00;13.00;;;20.70;95.50;;;;;;5033889;28;20017;-80
2023/10/03 04:22:50;;;;;;;29.55;13.00;;;20.70;95.70;;;;;;5032903;28;20033;-81
2023/10/03 04:25:19;;;;;;;28.17;13.38;;;20.70;95.80;;;;;;5033484;28;20078;-81
2023/10/03 04:27:47;;;;;;;27.00;12.50;;;20.70;95.80;;;;;;5032447;28;20050;-80
2023/10/03 04:30:13;;;;;;;23.55;10.90;;;20.70;95.90;;;;;;5033546;28;20040;-81
2023/10/03 04:32:43;;;;;;;25.35;12.10;;;20.70;96.00;;;;;;5033434;28;20033;-80
2023/10/03 04:35:13;;;;;;;22.52;10.75;;;20.60;96.00;;;;;;5033112;28;20037;-80
2023/10/03 04:37:43;;;;;;;21.38;10.77;;;20.60;96.10;;;;;;5033332;28;20030;-80
2023/10/03 04:40:15;;;;;;;21.08;10.45;;;20.50;96.20;;;;;;5033456;28;20036;-79
2023/10/03 04:42:43;;;;;;;22.17;10.27;;;20.50;96.40;;;;;;5033739;28;20026;-79
2023/10/03 04:45:10;;;;;;;20.95;9.45;;;20.50;96.50;;;;;;5048514;28;20033;-79
2023/10/03 04:47:41;;;;;;;23.60;10.07;;;20.50;96.40;;;;;;5032380;28;20057;-79
2023/10/03 04:50:08;;;;;;;18.85;8.57;;;20.50;96.50;;;;;;5033698;28;20107;-80
2023/10/03 04:52:33;;;;;;;15.38;6.22;;;20.50;96.60;;;;;;5031863;28;20033;-79
2023/10/03 04:54:59;;;;;;;19.63;6.45;;;20.40;96.40;;;;;;5033154;28;20076;-79
2023/10/03 04:57:27;;;;;;;18.20;5.18;;;20.30;96.70;;;;;;5033054;28;20034;-79
2023/10/03 04:59:56;;;;;;;15.48;4.35;;;20.30;96.60;;;;;;5033100;28;20026;-79
2023/10/03 05:02:24;;;;;;;14.52;5.68;;;20.20;96.70;;;;;;5033127;28;20113;-79
2023/10/03 05:04:50;;;;;;;16.50;5.20;;;20.10;96.80;;;;;;5033182;28;20071;-80
2023/10/03 05:07:15;;;;;;;14.48;5.22;;;20.00;96.90;;;;;;5033064;28;20033;-80
2023/10/03 05:09:41;;;;;;;18.45;4.97;;;20.00;97.00;;;;;;5033825;28;20492;-80
2023/10/03 05:12:07;;;;;;;15.18;4.30;;;20.00;97.10;;;;;;5031830;28;20029;-79
2023/10/03 05:14:34;;;;;;;14.85;4.88;;;20.00;97.10;;;;;;5033283;28;20462;-79
2023/10/03 05:17:01;;;;;;;12.40;4.30;;;20.00;97.10;;;;;;5033201;28;20051;-79
2023/10/03 05:19:28;;;;;;;12.65;3.90;;;19.90;97.10;;;;;;5034253;28;20033;-80
2023/10/03 05:21:53;;;;;;;13.93;4.90;;;19.90;97.10;;;;;;5034992;28;20319;-80
2023/10/03 05:24:19;;;;;;;12.35;4.65;;;19.90;97.10;;;;;;5035507;28;20026;-79
2023/10/03 05:26:45;;;;;;;11.02;3.70;;;19.90;97.10;;;;;;5033463;28;20494;-80
2023/10/03 05:29:11;;;;;;;13.27;4.40;;;19.90;97.00;;;;;;5033624;28;20057;-80
2023/10/03 05:31:40;;;;;;;11.35;4.60;;;19.90;96.90;;;;;;5033259;28;20445;-80
2023/10/03 05:34:10;;;;;;;9.98;4.45;;;19.80;96.80;;;;;;5032712;28;20478;-80
2023/10/03 05:36:36;;;;;;;11.40;3.58;;;19.80;96.90;;;;;;5033354;28;20029;-81
2023/10/03 05:39:03;;;;;;;13.20;4.13;;;19.80;96.90;;;;;;5033027;28;20047;-80
2023/10/03 05:41:29;;;;;;;9.10;3.40;;;19.80;96.90;;;;;;5032906;28;20064;-81
2023/10/03 05:43:54;;;;;;;11.13;3.92;;;19.80;97.10;;;;;;5032752;28;20026;-80
2023/10/03 05:46:20;;;;;;;10.93;4.47;;;19.80;97.10;;;;;;5031345;28;20430;-80
2023/10/03 05:48:46;;;;;;;12.60;3.72;;;19.80;97.10;;;;;;5032940;28;20485;-78
2023/10/03 05:51:12;;;;;;;14.38;4.03;;;19.70;97.10;;;;;;5031473;28;20022;-79
2023/10/03 05:53:41;;;;;;;8.82;3.65;;;19.80;97.20;;;;;;5032413;28;20026;-80
2023/10/03 05:56:10;;;;;;;12.23;3.63;;;19.70;97.20;;;;;;5033176;28;20026;-79
2023/10/03 05:58:37;;;;;;;10.25;4.00;;;19.70;97.20;;;;;;5034800;28;20029;-80
2023/10/03 06:01:03;;;;;;;10.13;4.53;;;19.80;97.20;;;;;;5036424;28;20025;-79
2023/10/03 06:03:29;;;;;;;7.60;3.58;;;19.80;97.30;;;;;;5034882;28;20025;-81
2023/10/03 06:05:55;;;;;;;9.70;4.40;;;19.70;97.20;;;;;;5035026;28;20098;-82
2023/10/03 06:08:21;;;;;;;9.88;3.97;;;19.70;97.30;;;;;;5052087;28;20025;-81
2023/10/03 06:10:49;;;;;;;7.65;3.60;;;19.70;97.30;;;;;;5036220;28;20037;-81
2023/10/03 06:13:17;;;;;;;9.73;3.50;;;19.70;97.40;;;;;;5036517;28;20034;-79
2023/10/03 06:15:46;;;;;;;8.43;3.53;;;19.70;97.40;;;;;;5035777;28;20032;-81
2023/10/03 06:18:11;;;;;;;7.68;3.20;;;19.70;97.60;;;;;;5034520;28;20117;-80
2023/10/03 06:20:38;;;;;;;11.13;3.97;;;19.70;97.60;;;;;;5035060;28;20109;-81
2023/10/03 06:23:04;;;;;;;9.30;3.83;;;19.70;97.60;;;;;;5034713;28;20025;-79
2023/10/03 06:25:31;;;;;;;10.60;4.10;;;19.70;97.60;;;;;;5035943;28;20125;-80
2023/10/03 06:27:59;;;;;;;9.07;3.85;;;19.70;97.70;;;;;;5035669;28;20060;-81
2023/10/03 06:30:25;;;;;;;9.07;3.90;;;19.70;97.80;;;;;;5036030;28;20030;-80
2023/10/03 06:32:51;;;;;;;9.73;3.80;;;19.70;97.80;;;;;;5036180;28;20079;-81
2023/10/03 06:35:18;;;;;;;9.27;4.15;;;19.70;97.90;;;;;;5035770;28;20026;-80
2023/10/03 06:37:44;;;;;;;10.18;4.32;;;19.70;97.80;;;;;;5035727;28;20026;-81
2023/10/03 06:40:13;;;;;;;16.58;4.05;;;19.70;97.80;;;;;;5035258;28;20029;-80
2023/10/03 06:42:40;;;;;;;8.77;4.18;;;19.70;97.80;;;;;;5035355;28;20036;-81
2023/10/03 06:45:09;;;;;;;11.63;3.63;;;19.70;97.80;;;;;;5035667;28;20033;-81
2023/10/03 06:47:35;;;;;;;10.95;4.72;;;19.70;97.80;;;;;;5035591;28;20034;-80
2023/10/03 06:50:05;;;;;;;11.10;4.68;;;19.70;97.90;;;;;;5018606;28;20026;-80
2023/10/03 06:52:32;;;;;;;8.65;4.13;;;19.70;97.90;;;;;;5035930;28;20052;-79
2023/10/03 06:54:58;;;;;;;12.85;4.10;;;19.70;97.90;;;;;;5035707;28;20026;-81
2023/10/03 06:57:24;;;;;;;11.32;4.47;;;19.70;98.00;;;;;;5017623;28;20033;-79
2023/10/03 06:59:49;;;;;;;11.23;3.78;;;19.70;98.10;;;;;;5035537;28;20463;-79
2023/10/03 07:02:15;;;;;;;11.57;4.22;;;19.70;98.10;;;;;;5035429;28;20040;-80
2023/10/03 07:04:41;;;;;;;8.75;3.72;;;19.70;98.00;;;;;;5034294;28;20030;-80
2023/10/03 07:07:08;;;;;;;13.15;5.55;;;19.70;98.00;;;;;;5035483;28;20091;-80
2023/10/03 07:09:33;;;;;;;7.43;3.45;;;19.70;97.90;;;;;;5033158;28;20041;-80
2023/10/03 07:12:00;;;;;;;9.50;3.83;;;19.70;97.90;;;;;;5035159;28;20034;-80
2023/10/03 07:14:25;;;;;;;8.45;3.42;;;19.80;97.80;;;;;;5035432;28;20033;-81
2023/10/03 07:16:51;;;;;;;7.93;4.57;;;19.80;97.80;;;;;;5035024;28;20076;-80
2023/10/03 07:19:17;;;;;;;8.82;3.33;;;19.90;97.80;;;;;;5033508;28;20433;-82
2023/10/03 07:21:42;;;;;;;11.15;3.88;;;19.90;97.80;;;;;;5034644;28;20065;-79
2023/10/03 07:24:08;;;;;;;9.52;4.32;;;19.90;97.60;;;;;;5034985;28;20068;-82
2023/10/03 07:26:34;;;;;;;12.20;4.00;;;19.80;98.00;;;;;;5034832;28;20040;-81
2023/10/03 07:29:02;;;;;;;13.40;4.40;;;19.80;97.90;;;;;;5033672;28;20096;-82
2023/10/03 07:31:30;;;;;;;12.95;4.28;;;19.80;98.10;;;;;;5034766;28;20371;-82
2023/10/03 07:33:56;;;;;;;9.55;4.53;;;19.70;98.80;;;;;;5034554;28;20025;-83
2023/10/03 07:36:22;;;;;;;9.68;4.28;;;19.60;99.30;;;;;;5034679;28;20037;-82
2023/10/03 07:38:48;;;;;;;11.02;4.10;;;19.50;99.40;;;;;;5035262;28;20480;-83
2023/10/03 07:41:15;;;;;;;11.60;4.82;;;19.50;99.90;;;;;;5034958;28;20124;-83
2023/10/03 07:43:41;;;;;;;11.18;4.55;;;19.40;99.90;;;;;;5033642;28;20037;-82
2023/10/03 07:46:07;;;;;;;10.95;4.50;;;19.30;99.90;;;;;;5034674;28;20167;-84
2023/10/03 07:48:32;;;;;;;10.23;4.18;;;19.30;99.90;;;;;;5034810;28;20363;-83
2023/10/03 07:50:58;;;;;;;11.55;4.63;;;19.20;99.90;;;;;;5033371;28;20025;-84
2023/10/03 07:53:28;;;;;;;10.45;4.60;;;19.10;99.90;;;;;;5034430;28;20421;-83
2023/10/03 07:55:53;;;;;;;12.65;5.15;;;19.10;99.90;;;;;;5034730;28;20040;-84
2023/10/03 07:58:20;;;;;;;12.60;5.20;;;19.20;99.90;;;;;;5034908;28;20055;-83
2023/10/03 08:00:46;;;;;;;10.57;4.07;;;19.20;99.90;;;;;;5033521;28;20394;-83
2023/10/03 08:03:12;;;;;;;6.55;3.05;;;19.10;99.90;;;;;;5034375;28;20034;-84
2023/10/03 08:05:39;;;;;;;8.35;4.07;;;19.10;99.90;;;;;;5035026;28;20375;-83
2023/10/03 08:08:05;;;;;;;8.25;3.05;;;19.10;99.90;;;;;;5034315;28;20100;-84
2023/10/03 08:10:32;;;;;;;10.48;3.60;;;19.10;99.90;;;;;;5034238;28;20033;-83
2023/10/03 08:12:59;;;;;;;7.00;2.65;;;19.10;99.90;;;;;;5031693;28;20113;-83
2023/10/03 08:15:31;;;;;;;8.85;2.70;;;19.10;99.90;;;;;;5032691;28;20379;-82
2023/10/03 08:17:58;;;;;;;9.40;2.50;;;19.00;99.90;;;;;;5034059;28;20163;-81
2023/10/03 08:20:24;;;;;;;8.32;2.47;;;19.00;99.90;;;;;;5033779;28;20037;-82
2023/10/03 08:22:52;;;;;;;6.60;2.53;;;19.00;99.90;;;;;;5033931;28;20065;-82
2023/10/03 08:25:22;;;;;;;7.22;2.25;;;19.00;99.90;;;;;;5033522;28;20040;-83
2023/10/03 08:27:49;;;;;;;5.63;2.15;;;19.00;99.90;;;;;;5033754;28;20030;-82
2023/10/03 08:30:28;;;;;;;9.55;2.08;;;19.00;99.90;;;;;;5034004;28;20033;-83
2023/10/03 08:33:00;;;;;;;10.70;2.00;;;19.10;99.90;;;;;;5034224;28;20369;-82
2023/10/03 08:35:37;;;;;;;7.07;1.58;;;19.10;99.90;;;;;;5033609;28;20026;-82
2023/10/03 08:38:08;;;;;;;7.70;1.73;;;19.10;99.90;;;;;;5033674;28;20111;-83
2023/10/03 08:40:40;;;;;;;6.50;1.40;;;19.10;99.90;;;;;;5033742;28;20073;-83
2023/10/03 08:43:10;;;;;;;7.95;1.75;;;19.00;99.90;;;;;;5033958;28;20026;-83
2023/10/03 08:45:41;;;;;;;6.82;1.20;;;18.90;99.90;;;;;;5033104;28;20128;-84
2023/10/03 08:48:08;;;;;;;5.65;1.00;;;18.90;99.90;;;;;;5033633;28;20044;-83
2023/10/03 08:50:43;;;;;;;6.55;1.73;;;18.80;99.90;;;;;;5034178;28;20481;-84
2023/10/03 08:53:27;;;;;;;5.38;1.05;;;18.70;99.90;;;;;;5033908;28;20022;-83
2023/10/03 08:55:58;;;;;;;4.78;1.38;;;18.60;99.90;;;;;;5034126;28;20061;-85
2023/10/03 08:58:25;;;;;;;4.60;1.23;;;18.50;99.90;;;;;;5034311;28;20022;-84
2023/10/03 09:00:58;;;;;;;5.22;0.88;;;18.40;99.90;;;;;;5033341;28;20053;-84
2023/10/03 09:03:47;;;;;;;3.40;0.70;;;18.40;99.90;;;;;;5032885;28;20033;-84
2023/10/03 09:06:19;;;;;;;3.05;0.60;;;18.40;99.90;;;;;;5034025;28;20033;-84
2023/10/03 09:09:09;;;;;;;;;;;18.40;99.90;;;;;;5033169;28;20370;-85
2023/10/03 09:11:38;;;;;;;2.85;0.50;;;18.40;99.90;;;;;;5033835;28;19909;-84
2023/10/03 09:14:05;;;;;;;2.85;0.47;;;18.30;99.90;;;;;;5033756;28;20025;-85
2023/10/03 09:16:38;;;;;;;5.43;0.63;;;18.30;99.90;;;;;;5032390;28;20041;-84
2023/10/03 09:19:13;;;;;;;3.30;0.30;;;18.30;99.90;;;;;;5033654;28;20029;-85
2023/10/03 09:21:39;;;;;;;2.40;0.40;;;18.30;99.90;;;;;;5033122;28;20405;-85
2023/10/03 09:24:15;;;;;;;3.22;0.38;;;18.30;99.90;;;;;;5032130;28;20116;-84
2023/10/03 09:26:45;;;;;;;3.15;0.40;;;18.30;99.90;;;;;;5033687;28;20207;-82
2023/10/03 09:29:32;;;;;;;3.03;0.70;;;18.30;99.90;;;;;;5033199;28;20045;-82
2023/10/03 09:32:00;;;;;;;2.95;0.50;;;18.30;99.90;;;;;;5033203;28;20033;-82
2023/10/03 09:34:32;;;;;;;3.50;0.40;;;18.40;99.90;;;;;;5036554;28;20033;-79
2023/10/03 09:37:02;;;;;;;3.40;0.30;;;18.40;99.90;;;;;;5037524;28;20040;-81
2023/10/03 09:39:39;;;;;;;4.30;0.73;;;18.40;99.90;;;;;;5037251;28;20045;-80
2023/10/03 09:42:15;;;;;;;1.65;0.30;;;18.50;99.90;;;;;;5035990;28;20044;-80
2023/10/03 09:44:48;;;;;;;3.53;0.40;;;18.50;99.90;;;;;;5037177;28;20028;-80
2023/10/03 09:47:17;;;;;;;2.20;0.55;;;18.60;99.90;;;;;;5036696;28;20045;-80
2023/10/03 09:49:43;;;;;;;5.20;0.88;;;18.60;99.90;;;;;;5035225;28;20382;-81
2023/10/03 09:52:22;;;;;;;3.30;0.50;;;18.70;99.90;;;;;;5034807;28;20462;-81
2023/10/03 09:54:53;;;;;;;5.43;0.50;;;18.70;99.90;;;;;;5036677;28;20097;-80
2023/10/03 09:57:23;;;;;;;7.30;0.80;;;18.80;99.90;;;;;;5035620;28;20037;-79
2023/10/03 09:59:50;;;;;;;4.05;0.70;;;18.80;99.90;;;;;;5036130;28;20116;-80
2023/10/03 10:02:46;;;;;;;1.92;0.50;;;18.80;99.90;;;;;;5035233;28;20030;-79
2023/10/03 10:05:20;;;;;;;5.40;0.90;;;18.90;99.90;;;;;;5036569;28;20137;-80
2023/10/03 10:08:17;;;;;;;3.20;0.40;;;18.90;99.90;;;;;;5036454;28;20026;-79
2023/10/03 10:11:01;;;;;;;3.20;0.85;;;18.80;99.90;;;;;;5035042;28;20078;-79
2023/10/03 10:13:34;;;;;;;4.05;0.40;;;18.70;99.90;;;;;;5036277;28;20413;-80
2023/10/03 10:16:13;;;;;;;2.33;0.43;;;18.70;99.90;;;;;;5036779;28;20037;-80
2023/10/03 10:18:45;;;;;;;2.40;0.40;;;18.70;99.90;;;;;;5036398;28;20034;-81
2023/10/03 10:21:37;;;;;;;4.03;0.88;;;18.70;99.90;;;;;;5036398;28;20041;-81
2023/10/03 10:24:21;;;;;;;2.47;0.45;;;18.70;99.90;;;;;;5019164;28;20128;-80
2023/10/03 10:26:53;;;;;;;3.53;0.95;;;18.80;99.90;;;;;;5036463;28;20040;-81
2023/10/03 10:29:24;;;;;;;2.75;0.40;;;18.90;99.90;;;;;;5036371;28;20053;-81
2023/10/03 10:32:01;;;;;;;4.53;0.80;;;18.90;99.40;;;;;;5036008;28;20041;-80
2023/10/03 10:34:29;;;;;;;2.60;0.43;;;18.80;99.30;;;;;;5036394;28;20056;-81
2023/10/03 10:37:12;;;;;;;2.25;0.20;;;18.80;99.50;;;;;;5036158;28;20036;-81
2023/10/03 10:39:56;;;;;;;4.60;0.32;;;18.80;99.40;;;;;;5036230;28;20034;-81
2023/10/03 10:42:25;;;;;;;3.55;0.55;;;18.70;99.10;;;;;;5036058;28;20018;-81
2023/10/03 10:45:16;;;;;;;3.70;0.32;;;18.70;99.20;;;;;;5034439;28;20041;-80
2023/10/03 10:47:48;;;;;;;3.50;0.70;;;18.70;99.10;;;;;;5035969;28;20052;-81
2023/10/03 10:50:14;;;;;;;2.63;0.45;;;18.60;99.60;;;;;;5034222;28;20033;-81
2023/10/03 10:52:57;;;;;;;2.20;0.80;;;18.50;99.50;;;;;;5035492;28;20038;-81
2023/10/03 10:55:26;;;;;;;2.17;0.80;;;18.60;99.70;;;;;;5035097;28;20029;-81
2023/10/03 10:58:22;;;;;;;3.25;0.60;;;18.50;99.40;;;;;;5035425;28;20102;-80
2023/10/03 11:00:57;;;;;;;3.13;0.60;;;18.50;99.70;;;;;;5034680;28;20375;-80
2023/10/03 11:03:23;;;;;;;3.17;0.20;;;18.50;99.60;;;;;;5036135;28;20147;-80
2023/10/03 11:05:50;;;;;;;4.75;0.70;;;18.50;99.20;;;;;;5034462;28;20487;-78
2023/10/03 11:08:21;;;;;;;1.65;0.80;;;18.50;99.60;;;;;;5035887;28;20039;-78
2023/10/03 11:10:55;;;;;;;5.15;1.00;;;18.60;99.60;;;;;;5035184;28;20041;-78
2023/10/03 11:13:21;;;;;;;2.67;0.38;;;18.70;99.90;;;;;;5035295;28;20083;-78
2023/10/03 11:15:51;;;;;;;1.90;0.50;;;18.80;99.80;;;;;;5034783;28;20030;-78
2023/10/03 11:18:31;;;;;;;2.55;0.98;;;18.90;99.30;;;;;;5034180;28;20502;-78
2023/10/03 11:21:03;;;;;;;5.07;0.40;;;18.90;98.90;;;;;;5033572;28;20057;-78
2023/10/03 11:23:29;;;;;;;3.47;0.30;;;18.90;98.80;;;;;;5034883;28;20513;-78
2023/10/03 11:26:00;;;;;;;2.15;0.77;;;18.80;98.30;;;;;;5035367;28;20045;-78
2023/10/03 11:28:29;;;;;;;2.22;0.30;;;18.70;98.30;;;;;;5034719;28;20096;-78
2023/10/03 11:31:06;;;;;;;2.85;0.32;;;18.70;98.50;;;;;;5035123;28;20030;-81
2023/10/03 11:33:42;;;;;;;3.25;0.47;;;18.70;98.60;;;;;;5034678;28;20028;-80
2023/10/03 11:36:08;;;;;;;2.97;0.50;;;18.70;98.90;;;;;;5034662;28;20040;-80
2023/10/03 11:38:54;;;;;;;2.08;0.22;;;18.80;99.10;;;;;;5034917;28;20096;-82
2023/10/03 11:41:29;;;;;;;1.45;0.40;;;18.70;98.90;;;;;;5034895;28;20481;-82
2023/10/03 11:43:55;;;;;;;3.20;0.30;;;18.60;98.90;;;;;;5034926;28;20029;-82
2023/10/03 11:46:21;;;;;;;2.65;0.60;;;18.50;99.10;;;;;;5034909;28;20045;-80
2023/10/03 11:48:59;;;;;;;5.70;0.55;;;18.40;99.20;;;;;;5034554;28;20037;-82
2023/10/03 11:51:25;;;;;;;2.85;0.40;;;18.40;99.20;;;;;;5033414;28;20119;-82
2023/10/03 11:53:53;;;;;;;3.45;0.70;;;18.40;99.40;;;;;;5033327;28;20080;-81
2023/10/03 11:56:18;;;;;;;3.47;0.50;;;18.30;99.30;;;;;;5033770;28;20366;-82
2023/10/03 11:58:44;;;;;;;2.88;0.55;;;18.30;99.20;;;;;;5034819;28;20030;-86
2023/10/03 12:01:10;;;;;;;2.80;0.65;;;18.30;99.10;;;;;;5016867;28;20025;-83
2023/10/03 12:03:37;;;;;;;3.95;0.70;;;18.20;98.90;;;;;;5034456;28;20079;-83
2023/10/03 12:06:04;;;;;;;4.80;0.73;;;18.20;99.10;;;;;;5034171;28;20036;-82
2023/10/03 12:08:32;;;;;;;2.65;0.32;;;18.10;99.20;;;;;;5033016;28;20107;-80
2023/10/03 12:10:58;;;;;;;2.72;0.50;;;18.20;99.40;;;;;;5034822;28;20034;-82
2023/10/03 12:13:23;;;;;;;3.63;0.60;;;18.10;99.40;;;;;;5033868;28;20505;-81
2023/10/03 12:15:49;;;;;;;4.40;0.93;;;18.00;99.20;;;;;;5033763;28;20033;-81
2023/10/03 12:18:15;;;;;;;5.03;0.80;;;17.80;99.60;;;;;;5033941;28;20123;-82
2023/10/03 12:20:43;;;;;;;4.35;0.90;;;17.60;99.40;;;;;;5048785;28;20037;-82
2023/10/03 12:23:10;;;;;;;4.03;0.70;;;17.50;99.90;;;;;;5033182;28;20535;-82
2023/10/03 12:25:36;;;;;;;4.95;1.02;;;17.40;99.90;;;;;;5032764;28;20041;-81
2023/10/03 12:28:01;;;;;;;6.85;1.00;;;17.40;99.90;;;;;;5032970;28;20540;-81
2023/10/03 12:30:27;;;;;;;5.88;1.45;;;17.30;99.90;;;;;;5033943;28;20041;-82
2023/10/03 12:32:53;;;;;;;6.45;1.67;;;17.20;99.90;;;;;;5034243;28;20127;-82
2023/10/03 12:35:19;;;;;;;6.00;1.08;;;17.10;99.90;;;;;;5033516;28;20037;-83
2023/10/03 12:37:49;;;;;;;7.43;1.35;;;17.00;99.90;;;;;;5033721;28;20041;-83
2023/10/03 12:40:19;;;;;;;9.13;1.50;;;17.00;99.90;;;;;;5034426;28;20121;-82
2023/10/03 12:42:51;;;;;;;10.98;1.50;;;17.00;99.90;;;;;;5032658;28;20037;-81
2023/10/03 12:45:18;;;;;;;7.32;1.33;;;17.00;99.90;;;;;;5033592;28;20027;-81
2023/10/03 12:47:48;;;;;;;5.72;1.45;;;17.00;99.90;;;;;;5033575;28;20033;-80
2023/10/03 12:50:39;;;;;;;9.18;2.08;;;17.00;99.90;;;;;;5033512;28;20032;-80